createdAt,value
2019-01-26T00:26:03.028Z,6.02
2019-01-26T00:26:03.169Z,5.47
2019-01-26T00:26:03.173Z,5.47
2019-01-26T00:26:03.227Z,5.47
2019-01-26T00:26:03.234Z,5.47
2019-01-26T00:31:58.003Z,3.72
2019-01-26T00:37:53.015Z,4.33
2019-01-26T00:43:48.004Z,4.28
2019-01-26T00:49:43.014Z,6.72
2019-01-26T00:55:38.041Z,4.04
2019-01-26T01:01:33.032Z,5.85
2019-01-26T01:07:28.054Z,4.71
2019-01-26T01:13:23.012Z,3.46
2019-01-26T01:19:18.020Z,3.02
2019-01-26T01:25:13.046Z,3.31
2019-01-26T01:31:08.009Z,2.66
2019-01-26T01:37:03.049Z,2.73
2019-01-26T01:42:58.012Z,2.94
2019-01-26T01:48:53.039Z,3.67
2019-01-26T01:54:48.061Z,4.27
2019-01-26T02:00:43.041Z,4.77
2019-01-26T02:06:38.046Z,4.98
2019-01-26T02:12:33.065Z,4.78
2019-01-26T02:18:28.030Z,4.35
2019-01-26T02:24:23.082Z,10.47
2019-01-26T02:30:18.055Z,12.71
2019-01-26T02:36:13.029Z,5.41
2019-01-26T02:42:08.032Z,5.12
2019-01-26T02:48:03.027Z,5.54
2019-01-26T02:53:58.044Z,6.67
2019-01-26T02:59:53.110Z,5.45
2019-01-26T03:23:33.062Z,10.52
2019-01-26T03:23:33.079Z,4.17
2019-01-26T03:23:33.093Z,4.17
2019-01-26T03:23:33.148Z,4.17
2019-01-26T03:29:28.093Z,5.9
2019-01-26T03:35:23.044Z,4.23
2019-01-26T03:41:18.072Z,5.09
2019-01-26T03:47:13.698Z,3.5
2019-01-26T03:53:08.049Z,3.37
2019-01-26T03:59:03.041Z,4.5
2019-01-26T04:04:58.063Z,5.77
2019-01-26T04:10:53.070Z,3.05
2019-01-26T04:16:48.057Z,4.14
2019-01-26T04:22:43.061Z,5.7
2019-01-26T04:28:38.037Z,5.07
2019-01-26T04:34:33.119Z,4.71
2019-01-26T04:40:28.121Z,3.86
2019-01-26T04:46:23.054Z,3.25
2019-01-26T04:52:18.086Z,4.67
2019-01-26T04:58:13.062Z,4.73
2019-01-26T05:04:08.077Z,4.9
2019-01-26T05:10:03.050Z,3.72
2019-01-26T05:15:58.057Z,4.15
2019-01-26T05:21:53.118Z,4.15
2019-01-26T05:27:48.076Z,7.61
2019-01-26T05:33:43.060Z,9.22
2019-01-26T05:39:38.107Z,8.13
2019-01-26T05:45:33.077Z,3.95
2019-01-26T05:51:28.184Z,5.25
2019-01-26T05:57:23.074Z,5.7
2019-01-26T06:26:58.142Z,4.5
2019-01-26T06:26:58.153Z,6
2019-01-26T06:26:58.173Z,6
2019-01-26T06:26:58.198Z,6
2019-01-26T06:26:58.217Z,6
2019-01-26T06:32:53.123Z,5.4
2019-01-26T06:38:48.054Z,5.25
2019-01-26T06:44:43.105Z,8.39
2019-01-26T06:50:38.070Z,5.77
2019-01-26T06:56:33.098Z,3.87
2019-01-26T07:02:28.112Z,6.42
2019-01-26T07:08:23.092Z,4.99
2019-01-26T07:14:18.083Z,4.47
2019-01-26T07:20:13.072Z,3.98
2019-01-26T07:26:08.084Z,5.51
2019-01-26T07:32:03.092Z,3.97
2019-01-26T07:37:58.081Z,4.69
2019-01-26T07:43:53.150Z,5.31
2019-01-26T07:49:48.087Z,5.92
2019-01-26T07:55:43.085Z,5.27
2019-01-26T08:01:38.104Z,4.49
2019-01-26T08:07:33.103Z,7.27
2019-01-26T08:13:28.116Z,5.9
2019-01-26T08:19:23.095Z,5.75
2019-01-26T08:25:18.090Z,6.08
2019-01-26T08:31:13.092Z,5.94
2019-01-26T08:37:08.191Z,5.5
2019-01-26T08:43:03.139Z,6.76
2019-01-26T08:48:58.137Z,5.45
2019-01-26T08:54:53.082Z,7.01
2019-01-26T09:00:48.133Z,6.86
2019-01-26T09:24:28.142Z,4.99
2019-01-26T09:24:28.224Z,5.67
2019-01-26T09:24:28.234Z,5.67
2019-01-26T09:24:28.263Z,5.67
2019-01-26T09:30:23.139Z,5.74
2019-01-26T09:36:18.132Z,6.55
2019-01-26T09:59:58.148Z,6.5
2019-01-26T10:05:53.151Z,6.92
2019-01-26T10:11:48.149Z,6.48
2019-01-26T10:17:45.851Z,7.01
2019-01-26T10:23:38.116Z,6.88
2019-01-26T10:29:33.138Z,7.3
2019-01-26T10:53:13.168Z,8.07
2019-01-26T10:53:13.271Z,7.72
2019-01-26T10:53:13.309Z,7.72
2019-01-26T10:53:13.336Z,7.72
2019-01-26T11:05:03.145Z,7.2
2019-01-26T11:10:58.157Z,7.12
2019-01-26T11:17:09.533Z,5.69
2019-01-26T11:22:48.130Z,5.74
2019-01-26T11:46:28.164Z,4.56
2019-01-26T11:46:28.200Z,5.54
2019-01-26T11:46:28.231Z,5.54
2019-01-26T11:46:28.236Z,5.54
2019-01-26T11:52:23.160Z,4.79
2019-01-26T11:58:18.186Z,5.19
2019-01-26T12:27:53.154Z,4.83
2019-01-26T12:27:53.281Z,5.62
2019-01-26T12:27:53.294Z,5.62
2019-01-26T12:27:53.318Z,5.62
2019-01-26T12:27:53.343Z,5.62
2019-01-26T12:33:48.154Z,5.85
2019-01-26T12:39:43.166Z,5.81
2019-01-26T12:45:38.145Z,6.32
2019-01-26T12:51:33.176Z,6.97
2019-01-26T12:57:28.174Z,7.13
2019-01-26T13:03:23.184Z,7.17
2019-01-26T13:09:18.159Z,5.67
2019-01-26T13:15:15.275Z,6.15
2019-01-26T13:21:08.145Z,5.58
2019-01-26T13:27:03.151Z,6.12
2019-01-26T13:32:58.159Z,4.44
2019-01-26T13:38:53.174Z,5.34
2019-01-26T13:44:48.159Z,4.91
2019-01-26T13:50:43.168Z,4.24
2019-01-26T13:56:38.175Z,6.15
2019-01-26T14:02:33.163Z,4.7
2019-01-26T14:08:28.159Z,3.76
2019-01-26T14:14:23.186Z,4.09
2019-01-26T14:20:18.204Z,3.89
2019-01-26T14:26:13.225Z,4.02
2019-01-26T14:32:08.165Z,3.69
2019-01-26T14:38:03.150Z,3.68
2019-01-26T14:43:58.205Z,4.36
2019-01-26T14:49:58.384Z,4.78
2019-01-26T14:55:48.203Z,5.87
2019-01-26T15:01:43.178Z,7.67
2019-01-26T15:25:23.236Z,6.26
2019-01-26T15:25:23.408Z,5.39
2019-01-26T15:25:23.423Z,5.39
2019-01-26T15:25:23.445Z,5.39
2019-01-26T15:31:18.169Z,6.17
2019-01-26T15:37:13.192Z,6.15
2019-01-26T15:43:08.175Z,4.71
2019-01-26T15:49:03.193Z,33.67
2019-01-26T15:54:58.233Z,41.74
2019-01-26T16:00:53.178Z,40.3
2019-01-26T16:06:48.223Z,38.7
2019-01-26T16:12:43.191Z,21.13
2019-01-26T16:18:38.211Z,25.61
2019-01-26T16:24:33.216Z,19.89
2019-01-26T16:30:28.193Z,19.31
2019-01-26T16:36:23.207Z,19.32
2019-01-26T16:42:18.215Z,33.16
2019-01-26T16:48:13.194Z,18.17
2019-01-26T17:11:53.200Z,11.01
2019-01-26T17:11:53.257Z,16.15
2019-01-26T17:11:53.274Z,16.15
2019-01-26T17:11:53.297Z,16.15
2019-01-26T17:17:48.217Z,9.89
2019-01-26T17:23:43.218Z,9.01
2019-01-26T17:29:38.250Z,10.56
2019-01-26T17:35:33.228Z,10.79
2019-01-26T17:41:28.256Z,8.44
2019-01-26T17:47:23.228Z,14.55
2019-01-26T17:53:18.195Z,8.73
2019-01-26T17:59:13.202Z,9.95
2019-01-26T18:28:48.234Z,7.53
2019-01-26T18:28:48.471Z,9.56
2019-01-26T18:28:48.521Z,9.56
2019-01-26T18:28:48.523Z,9.56
2019-01-26T18:28:48.531Z,9.56
2019-01-26T18:34:43.212Z,7.96
2019-01-26T18:40:38.247Z,10.78
2019-01-26T18:46:33.223Z,13.07
2019-01-26T18:52:28.212Z,9.93
2019-01-26T18:58:23.252Z,9.61
2019-01-26T19:04:18.225Z,9.15
2019-01-26T19:10:13.234Z,7.24
2019-01-26T19:16:08.275Z,10.74
2019-01-26T19:22:03.242Z,13.73
2019-01-26T19:27:58.232Z,8.9
2019-01-26T19:33:53.241Z,5.98
2019-01-26T19:39:48.238Z,8.8
2019-01-26T19:45:43.299Z,9.69
2019-01-26T19:51:38.269Z,15.83
2019-01-26T19:57:33.223Z,19.71
2019-01-26T20:03:28.240Z,15.46
2019-01-26T20:09:23.259Z,12.74
2019-01-26T20:15:18.439Z,14.53
2019-01-26T20:21:17.580Z,11.47
2019-01-26T20:27:08.250Z,7.78
2019-01-26T20:33:03.255Z,8.6
2019-01-26T20:38:58.274Z,7.1
2019-01-26T20:44:53.243Z,6.98
2019-01-26T20:50:48.308Z,7.64
2019-01-26T20:56:43.249Z,8.36
2019-01-26T21:02:38.235Z,8.86
2019-01-26T21:26:18.258Z,6.77
2019-01-26T21:26:18.452Z,43.11
2019-01-26T21:26:18.454Z,43.11
2019-01-26T21:26:18.494Z,43.11
2019-01-26T21:32:13.247Z,10.72
2019-01-26T21:38:08.280Z,13.95
2019-01-26T21:44:03.285Z,12.37
2019-01-26T21:49:58.306Z,12.67
2019-01-26T21:55:53.253Z,8.34
2019-01-26T22:01:48.276Z,8.35
2019-01-26T22:07:43.266Z,25.31
2019-01-26T22:13:38.255Z,22.08
2019-01-26T22:19:33.249Z,14.06
2019-01-26T22:25:28.316Z,12.41
2019-01-26T22:31:24.308Z,13.4
2019-01-26T22:37:18.248Z,7.72
2019-01-26T22:43:13.275Z,7.72
2019-01-26T22:49:08.294Z,8.39
2019-01-26T22:55:03.288Z,8.79
2019-01-26T23:00:58.343Z,7.29
2019-01-26T23:06:53.291Z,9.78
2019-01-26T23:12:48.309Z,6.8
2019-01-26T23:18:43.290Z,12.65
2019-01-26T23:24:38.275Z,12
2019-01-26T23:30:33.277Z,15.07
2019-01-26T23:36:28.263Z,8.68
2019-01-26T23:42:23.280Z,9.95
2019-01-26T23:48:18.314Z,6.6
2019-01-26T23:54:13.301Z,5.77
